Nautilus — ISPC — position and weather

sailwx.info

Track history (hours):
 
Tides and Currents Weather Stations Pressure Air Temp Water Temp Dewpoint Dewpoint Depression Visibility Wind Speed Wind Dir Waves Ship Positions

Nautilus

Last reported at 2018-May-27 14:26 UTC. Time now 2018-May-27 15:53 UTC.
Position N 42°46' E 010°06'.

Length 25 m.

Type: Ship. MMSI: 247205700.

Date/timePositionNaut miles runAvg speedWind from/ knotsBaromVisibWave heightAir tempDewpointWater temp
2018-May-27 14:26N 42°46' E 010°06'3 6.3
2018-May-27 13:58N 42°49' E 010°09'3 5.4
2018-May-27 13:30N 42°48' E 010°12'0 0.0
2018-May-27 12:57N 42°48' E 010°12'0 0.0
2018-May-27 12:30N 42°48' E 010°12'0 0.3
2018-May-27 12:00N 42°49' E 010°12'0 0.0
2018-May-27 11:30N 42°49' E 010°12'0 0.0
2018-May-27 11:00N 42°49' E 010°12'0 0.0
2018-May-27 10:30N 42°49' E 010°12'0 0.0
2018-May-27 10:00N 42°49' E 010°12'0 0.0
2018-May-27 09:30N 42°49' E 010°12'0 0.0
2018-May-27 09:00N 42°49' E 010°12'0 0.0
2018-May-27 08:30N 42°49' E 010°12'0 0.0
2018-May-27 07:59N 42°49' E 010°12'0 0.0
2018-May-27 07:30N 42°49' E 010°12'0 0.0
2018-May-27 07:00N 42°49' E 010°12'0 0.0
2018-May-27 06:30N 42°49' E 010°12'0 0.0
2018-May-27 06:00N 42°49' E 010°12'0 0.0
2018-May-27 05:30N 42°49' E 010°12'0 0.0
2018-May-27 05:00N 42°49' E 010°12'0 0.0
2018-May-27 04:30N 42°49' E 010°12'0 0.0
2018-May-27 04:00N 42°49' E 010°12'0 0.0
2018-May-27 03:30N 42°49' E 010°12'0 0.0
2018-May-27 02:30N 42°49' E 010°12'0 0.0
2018-May-27 02:00N 42°49' E 010°12'0 0.0
2018-May-27 01:30N 42°49' E 010°12'0 0.0
2018-May-27 00:58N 42°49' E 010°12'0 0.0
2018-May-27 00:18N 42°49' E 010°12'0 0.0
2018-May-26 23:57N 42°49' E 010°12'0 0.0
2018-May-26 23:29N 42°49' E 010°12'0 0.0
2018-May-26 23:00N 42°49' E 010°12'0 0.0
2018-May-26 22:29N 42°49' E 010°12'0 0.0
2018-May-26 21:59N 42°49' E 010°12'0 0.0
2018-May-26 21:30N 42°49' E 010°12'0 0.0
2018-May-26 21:00N 42°49' E 010°12'0 0.0
2018-May-26 20:30N 42°49' E 010°12'0 0.0
2018-May-26 19:56N 42°49' E 010°12'0 0.0
2018-May-26 19:27N 42°49' E 010°12'0 0.0
2018-May-26 19:00N 42°49' E 010°12'0 0.0
2018-May-26 18:30N 42°49' E 010°12'0 0.0
2018-May-26 18:00N 42°49' E 010°12'0 0.0
2018-May-26 17:30N 42°49' E 010°12'0 0.0
2018-May-26 17:00N 42°49' E 010°12'0 0.0
2018-May-26 16:29N 42°49' E 010°12'0 0.3
2018-May-26 16:00N 42°48' E 010°12'3 6.4
2018-May-26 15:30N 42°49' E 010°08'4 7.1
2018-May-26 15:00N 42°45' E 010°06'1 2.0
2018-May-26 14:30N 42°46' E 010°06'3 5.7
2018-May-26 14:00N 42°49' E 010°08'3 5.8
2018-May-26 13:30N 42°48' E 010°12'0 0.0
2018-May-26 13:00N 42°48' E 010°12'0 0.0
2018-May-26 12:30N 42°48' E 010°12'0 0.0
2018-May-26 12:00N 42°48' E 010°12'0 0.3
2018-May-26 11:30N 42°49' E 010°12'0 0.0
2018-May-26 11:00N 42°49' E 010°12'0 0.0
2018-May-26 10:30N 42°49' E 010°12'0 0.0
2018-May-26 10:00N 42°49' E 010°12'0 0.0
2018-May-26 09:30N 42°49' E 010°12'0 0.0
2018-May-26 08:57N 42°49' E 010°12'0 0.0
2018-May-26 08:30N 42°49' E 010°12'0 0.0
2018-May-26 07:58N 42°49' E 010°12'0 0.0
2018-May-26 07:11N 42°49' E 010°12'0 0.0
2018-May-26 07:00N 42°49' E 010°12'0 0.0
2018-May-26 06:30N 42°49' E 010°12'0 0.0
2018-May-26 05:30N 42°49' E 010°12'0 0.0
2018-May-26 04:59N 42°49' E 010°12'0 0.0
2018-May-26 04:30N 42°49' E 010°12'0 0.0
2018-May-26 04:00N 42°49' E 010°12'0 0.0
2018-May-26 03:30N 42°49' E 010°12'0 0.0
2018-May-26 03:00N 42°49' E 010°12'0 0.0
2018-May-26 02:30N 42°49' E 010°12'0 0.0
2018-May-26 01:43N 42°49' E 010°12'0 0.0
2018-May-26 01:25N 42°49' E 010°12'0 0.0
2018-May-26 00:59N 42°49' E 010°12'0 0.0
2018-May-26 00:20N 42°49' E 010°12'0 0.0
2018-May-26 00:00N 42°49' E 010°12'0 0.0
2018-May-25 23:30N 42°49' E 010°12'0 0.0
2018-May-25 22:59N 42°49' E 010°12'0 0.0
2018-May-25 22:30N 42°49' E 010°12'0 0.0
2018-May-25 22:00N 42°49' E 010°12'0 0.0
2018-May-25 21:30N 42°49' E 010°12'0 0.0
2018-May-25 20:53N 42°49' E 010°12'0 0.0
2018-May-25 20:24N 42°49' E 010°12'0 0.0
2018-May-25 20:00N 42°49' E 010°12'0 0.0
2018-May-25 19:30N 42°49' E 010°12'0 0.0
2018-May-25 18:57N 42°49' E 010°12'0 0.0
2018-May-25 18:28N 42°49' E 010°12'0 0.0
2018-May-25 18:00N 42°49' E 010°12'0 0.0
2018-May-25 17:28N 42°49' E 010°12'0 0.0
2018-May-25 17:00N 42°49' E 010°12'0 0.0
2018-May-25 16:30N 42°49' E 010°12'0 0.3
2018-May-25 16:00N 42°48' E 010°12'4 7.1
2018-May-25 15:30N 42°48' E 010°07'2 2.2
2018-May-25 14:29N 42°46' E 010°06'3 6.2
2018-May-25 13:59N 42°49' E 010°09'2 4.5
2018-May-25 13:28N 42°48' E 010°12'0 0.0
2018-May-25 13:00N 42°48' E 010°12'0 0.0
2018-May-25 12:28N 42°48' E 010°12'0 0.0
2018-May-25 11:52N 42°48' E 010°12'0 0.0
2018-May-25 11:28N 42°48' E 010°12'0 0.0
2018-May-25 10:58N 42°48' E 010°12'0 0.0
2018-May-25 10:28N 42°48' E 010°12'0 0.0
2018-May-25 09:59N 42°48' E 010°12'0 0.0
2018-May-25 09:30N 42°48' E 010°12'0 0.4
2018-May-25 09:00N 42°49' E 010°12'0 0.0
2018-May-25 08:30N 42°49' E 010°12'0 0.0
2018-May-25 08:00N 42°49' E 010°12'0 0.0
2018-May-25 07:23N 42°49' E 010°12'0 0.0
2018-May-25 07:00N 42°49' E 010°12'0 0.0
2018-May-25 06:30N 42°49' E 010°12'0 0.0
2018-May-25 06:00N 42°49' E 010°12'0 0.0
2018-May-25 05:30N 42°49' E 010°12'0 0.0
2018-May-25 05:00N 42°49' E 010°12'0 0.0
2018-May-25 04:30N 42°49' E 010°12'0 0.0
2018-May-25 04:00N 42°49' E 010°12'0 0.0
2018-May-25 03:30N 42°49' E 010°12'0 0.0
2018-May-25 02:59N 42°49' E 010°12'0 0.0
2018-May-25 02:28N 42°49' E 010°12'0 0.0
2018-May-25 02:00N 42°49' E 010°12'0 0.0
2018-May-25 01:30N 42°49' E 010°12'0 0.0
2018-May-25 00:59N 42°49' E 010°12'0 0.0
2018-May-25 00:30N 42°49' E 010°12'0 0.0
2018-May-25 00:00N 42°49' E 010°12'0 0.0
2018-May-24 23:30N 42°49' E 010°12'0 0.0
2018-May-24 23:00N 42°49' E 010°12'0 0.0
2018-May-24 22:30N 42°49' E 010°12'0 0.0
2018-May-24 22:00N 42°49' E 010°12'0 0.0
2018-May-24 21:30N 42°49' E 010°12'0 0.0
2018-May-24 20:59N 42°49' E 010°12'0 0.0
2018-May-24 20:30N 42°49' E 010°12'0 0.0
2018-May-24 20:00N 42°49' E 010°12'0 0.0
2018-May-24 19:28N 42°49' E 010°12'0 0.0
2018-May-24 18:59N 42°49' E 010°12'0 0.0
2018-May-24 17:59N 42°49' E 010°12'0 0.0
2018-May-24 17:30N 42°49' E 010°12'0 0.0
2018-May-24 17:00N 42°49' E 010°12'0 0.0
2018-May-24 16:29N 42°49' E 010°12'0 0.4
2018-May-24 16:00N 42°48' E 010°12'3 6.6
2018-May-24 15:30N 42°49' E 010°07'0 0.2
2018-May-24 14:01N 42°49' E 010°08'0 8.7
2018-May-24 13:58N 42°49' E 010°08'3 5.7
2018-May-24 13:30N 42°48' E 010°12'1 0.2
2018-May-24 07:44N 42°49' E 010°13'1 4.3
2018-May-24 07:30N 42°49' E 010°12'0 0.0
2018-May-24 06:58N 42°49' E 010°12'0 0.0
2018-May-24 06:30N 42°49' E 010°12'0 0.0
2018-May-24 06:00N 42°49' E 010°12'0 0.0
2018-May-24 05:29N 42°49' E 010°12'0 0.0
2018-May-24 05:00N 42°49' E 010°12'0 0.0
2018-May-24 04:16N 42°49' E 010°12'0 0.0
2018-May-24 04:00N 42°49' E 010°12'0 0.0
2018-May-24 03:30N 42°49' E 010°12'0 0.0
2018-May-24 03:00N 42°49' E 010°12'0 0.0
2018-May-24 02:30N 42°49' E 010°12'0 0.0
2018-May-24 02:00N 42°49' E 010°12'0 0.0
2018-May-24 01:30N 42°49' E 010°12'0 0.0
2018-May-24 01:00N 42°49' E 010°12'0 0.0
2018-May-24 00:30N 42°49' E 010°12'0 0.0
2018-May-24 00:00N 42°49' E 010°12'0 0.0
2018-May-23 23:30N 42°49' E 010°12'0 0.0
2018-May-23 23:00N 42°49' E 010°12'0 0.0
2018-May-23 22:30N 42°49' E 010°12'0 0.0
2018-May-23 22:00N 42°49' E 010°12'0 0.0
2018-May-23 21:30N 42°49' E 010°12'0 0.0
2018-May-23 21:00N 42°49' E 010°12'0 0.0
2018-May-23 20:30N 42°49' E 010°12'0 0.0
2018-May-23 19:58N 42°49' E 010°12'0 0.0
2018-May-23 19:30N 42°49' E 010°12'0 0.0
2018-May-23 19:00N 42°49' E 010°12'0 0.0
2018-May-23 18:30N 42°49' E 010°12'0 0.0
2018-May-23 18:00N 42°49' E 010°12'0 0.0
2018-May-23 17:29N 42°49' E 010°12'0 0.0
2018-May-23 17:00N 42°49' E 010°12'0 0.0
2018-May-23 16:30N 42°49' E 010°12'0 0.0
2018-May-23 16:00N 42°49' E 010°12'0 0.0
2018-May-23 15:30N 42°49' E 010°12'0 0.0
2018-May-23 15:00N 42°49' E 010°12'0 0.0
2018-May-23 14:30N 42°49' E 010°12'0 0.0
2018-May-23 14:00N 42°49' E 010°12'0 0.0
2018-May-23 13:30N 42°49' E 010°12'0 0.0
2018-May-23 13:00N 42°49' E 010°12'0 0.0
2018-May-23 12:22N 42°49' E 010°12'0 0.0
2018-May-23 12:00N 42°49' E 010°12'0 0.0
2018-May-23 11:30N 42°49' E 010°12'0 0.0
2018-May-23 11:00N 42°49' E 010°12'0 0.0
2018-May-23 10:30N 42°49' E 010°12'0 0.0
2018-May-23 09:59N 42°49' E 010°12'0 0.0
2018-May-23 09:30N 42°49' E 010°12'0 0.0
2018-May-23 08:59N 42°49' E 010°12'0 0.0
2018-May-23 08:30N 42°49' E 010°12'0 0.0
2018-May-23 08:00N 42°49' E 010°12'0 0.0
2018-May-23 07:30N 42°49' E 010°12'0 0.0
2018-May-23 06:59N 42°49' E 010°12'0 0.0
2018-May-23 06:30N 42°49' E 010°12'0 0.0
2018-May-23 06:00N 42°49' E 010°12'0 0.0
2018-May-23 05:30N 42°49' E 010°12'0 0.0
2018-May-23 05:00N 42°49' E 010°12'0 0.0
2018-May-23 04:30N 42°49' E 010°12'0 0.0
2018-May-23 04:00N 42°49' E 010°12'0 0.0
2018-May-23 03:30N 42°49' E 010°12'0 0.0
2018-May-23 03:00N 42°49' E 010°12'0 0.0
2018-May-23 02:30N 42°49' E 010°12'0 0.0
2018-May-23 02:00N 42°49' E 010°12'0 0.0
2018-May-23 01:30N 42°49' E 010°12'0 0.0
2018-May-23 01:00N 42°49' E 010°12'0 0.0
2018-May-23 00:30N 42°49' E 010°12'0 0.0
2018-May-23 00:00N 42°49' E 010°12'0 0.0
2018-May-22 23:30N 42°49' E 010°12'0 0.0
2018-May-22 23:00N 42°49' E 010°12'0 0.0
2018-May-22 22:30N 42°49' E 010°12'0 0.0
2018-May-22 21:59N 42°49' E 010°12'0 0.0
2018-May-22 21:30N 42°49' E 010°12'0 0.0
2018-May-22 21:00N 42°49' E 010°12'0 0.0
2018-May-22 20:30N 42°49' E 010°12'0 0.0
2018-May-22 20:00N 42°49' E 010°12'0 0.0
2018-May-22 19:30N 42°49' E 010°12'0 0.0
2018-May-22 19:00N 42°49' E 010°12'0 0.0
2018-May-22 18:30N 42°49' E 010°12'0 0.0
2018-May-22 18:00N 42°49' E 010°12'0 0.0
2018-May-22 17:29N 42°49' E 010°12'0 0.0
2018-May-22 17:00N 42°49' E 010°12'0 0.0
2018-May-22 16:30N 42°49' E 010°12'0 0.3
2018-May-22 16:00N 42°48' E 010°12'3 1.4
2018-May-22 14:01N 42°49' E 010°08'2 8.1
2018-May-22 13:42N 42°49' E 010°11'1 2.2
2018-May-22 13:28N 42°48' E 010°12'0 0.0
2018-May-22 12:56N 42°48' E 010°12'0 0.0
2018-May-22 12:30N 42°48' E 010°12'0 0.0
2018-May-22 12:00N 42°48' E 010°12'0 0.0
2018-May-22 11:30N 42°48' E 010°12'0 0.0
2018-May-22 11:00N 42°48' E 010°12'0 0.3
2018-May-22 10:30N 42°49' E 010°12'0 0.0
2018-May-22 09:59N 42°49' E 010°12'0 0.0
2018-May-22 09:30N 42°49' E 010°12'0 0.0
2018-May-22 09:00N 42°49' E 010°12'0 0.0
2018-May-22 08:30N 42°49' E 010°12'0 0.0
2018-May-22 08:00N 42°49' E 010°12'0 0.0
2018-May-22 07:30N 42°49' E 010°12'0 0.0
2018-May-22 06:57N 42°49' E 010°12'0 0.0
2018-May-22 06:30N 42°49' E 010°12'0 0.0
2018-May-22 06:00N 42°49' E 010°12'0 0.0
2018-May-22 05:30N 42°49' E 010°12'0 0.0
2018-May-22 05:00N 42°49' E 010°12'0 0.0
2018-May-22 04:30N 42°49' E 010°12'0 0.0
2018-May-22 04:00N 42°49' E 010°12'0 0.0
2018-May-22 03:30N 42°49' E 010°12'0 0.0
2018-May-22 03:00N 42°49' E 010°12'0 0.0
2018-May-22 02:30N 42°49' E 010°12'0 0.0
2018-May-22 02:00N 42°49' E 010°12'0 0.0
2018-May-22 01:29N 42°49' E 010°12'0 0.0
2018-May-22 01:00N 42°49' E 010°12'0 0.0
2018-May-22 00:30N 42°49' E 010°12'0 0.0
2018-May-22 00:00N 42°49' E 010°12'0 0.0
2018-May-21 23:30N 42°49' E 010°12'0 0.0
2018-May-21 23:00N 42°49' E 010°12'0 0.0
2018-May-21 22:30N 42°49' E 010°12'0 0.0
2018-May-21 22:00N 42°49' E 010°12'0 0.0
2018-May-21 21:30N 42°49' E 010°12'0 0.0
2018-May-21 21:00N 42°49' E 010°12'0 0.0
2018-May-21 20:30N 42°49' E 010°12'0 0.0
2018-May-21 20:00N 42°49' E 010°12'0 0.0
2018-May-21 19:30N 42°49' E 010°12'0 0.0
2018-May-21 19:00N 42°49' E 010°12'0 0.0
2018-May-21 18:30N 42°49' E 010°12'0 0.0
2018-May-21 18:00N 42°49' E 010°12'0 0.0
2018-May-21 17:30N 42°49' E 010°12'0 0.0
2018-May-21 17:00N 42°49' E 010°12'0 0.0
2018-May-21 16:30N 42°49' E 010°12'0 0.3
2018-May-21 16:00N 42°48' E 010°12'5 3.1
2018-May-21 14:27N 42°46' E 010°06'3 6.0
2018-May-21 13:59N 42°49' E 010°08'3 5.7
2018-May-21 13:30N 42°48' E 010°12'0 0.0
2018-May-21 13:00N 42°48' E 010°12'0 0.0
2018-May-21 12:30N 42°48' E 010°12'0 0.4
2018-May-21 12:00N 42°49' E 010°12'0 0.0
2018-May-21 11:30N 42°49' E 010°12'0 0.0
2018-May-21 11:00N 42°49' E 010°12'0 0.0
2018-May-21 10:30N 42°49' E 010°12'0 0.0
2018-May-21 09:59N 42°49' E 010°12'0 0.0
2018-May-21 09:30N 42°49' E 010°12'0 0.0
2018-May-21 08:59N 42°49' E 010°12'0 0.0
2018-May-21 08:30N 42°49' E 010°12'0 0.0
2018-May-21 08:00N 42°49' E 010°12'0 0.0
2018-May-21 07:30N 42°49' E 010°12'0 0.0
2018-May-21 07:00N 42°49' E 010°12'0 0.0
2018-May-21 06:30N 42°49' E 010°12'0 0.0
2018-May-21 05:59N 42°49' E 010°12'0 0.0
2018-May-21 05:30N 42°49' E 010°12'0 0.0
2018-May-21 05:00N 42°49' E 010°12'0 0.0
2018-May-21 04:30N 42°49' E 010°12'0 0.0
2018-May-21 04:00N 42°49' E 010°12'0 0.0
2018-May-21 03:30N 42°49' E 010°12'0 0.0
2018-May-21 03:00N 42°49' E 010°12'0 0.0
2018-May-21 02:30N 42°49' E 010°12'0 0.0
2018-May-21 02:00N 42°49' E 010°12'0 0.0
2018-May-21 01:30N 42°49' E 010°12'0 0.0
2018-May-21 01:00N 42°49' E 010°12'0 0.0
2018-May-21 00:30N 42°49' E 010°12'0 0.0
2018-May-21 00:00N 42°49' E 010°12'0 0.0
2018-May-20 23:30N 42°49' E 010°12'0 0.0
2018-May-20 23:00N 42°49' E 010°12'0 0.0
2018-May-20 22:30N 42°49' E 010°12'0 0.0
2018-May-20 22:00N 42°49' E 010°12'0 0.0
2018-May-20 21:30N 42°49' E 010°12'0 0.0
2018-May-20 21:00N 42°49' E 010°12'0 0.0
2018-May-20 20:30N 42°49' E 010°12'0 0.0
2018-May-20 20:00N 42°49' E 010°12'0 0.0
2018-May-20 19:30N 42°49' E 010°12'0 0.0
2018-May-20 19:00N 42°49' E 010°12'0 0.0
2018-May-20 18:30N 42°49' E 010°12'0 0.0
2018-May-20 18:00N 42°49' E 010°12'0 0.0
2018-May-20 17:30N 42°49' E 010°12'0 0.0
2018-May-20 17:00N 42°49' E 010°12'0 0.0
2018-May-20 16:30N 42°49' E 010°12'0 0.4
2018-May-20 16:00N 42°48' E 010°12'3 6.9
2018-May-20 15:30N 42°48' E 010°07'2 2.0
2018-May-20 14:25N 42°46' E 010°06'3 6.5
2018-May-20 14:00N 42°49' E 010°08'3 5.1
2018-May-20 13:28N 42°48' E 010°12'0 0.0
2018-May-20 13:00N 42°48' E 010°12'0 0.0
2018-May-20 12:30N 42°48' E 010°12'0 0.3
2018-May-20 11:59N 42°49' E 010°12'0 0.0
2018-May-20 11:30N 42°49' E 010°12'0 0.0
2018-May-20 11:00N 42°49' E 010°12'0 0.0
2018-May-20 10:30N 42°49' E 010°12'0 0.0
2018-May-20 09:59N 42°49' E 010°12'0 0.0
2018-May-20 09:30N 42°49' E 010°12'0 0.0
2018-May-20 09:00N 42°49' E 010°12'0 0.0
2018-May-20 08:30N 42°49' E 010°12'0 0.0
2018-May-20 08:00N 42°49' E 010°12'0 0.0
2018-May-20 07:30N 42°49' E 010°12'0 0.0
2018-May-20 07:00N 42°49' E 010°12'0 0.0
2018-May-20 06:30N 42°49' E 010°12'0 0.0
2018-May-20 06:00N 42°49' E 010°12'0 0.0
2018-May-20 05:30N 42°49' E 010°12'0 0.0
2018-May-20 04:59N 42°49' E 010°12'0 0.0
2018-May-20 04:30N 42°49' E 010°12'0 0.0
2018-May-20 04:00N 42°49' E 010°12'0 0.0
2018-May-20 03:30N 42°49' E 010°12'0 0.0
2018-May-20 03:00N 42°49' E 010°12'0 0.0
2018-May-20 02:30N 42°49' E 010°12'0 0.0
2018-May-20 02:00N 42°49' E 010°12'0 0.0
2018-May-20 01:30N 42°49' E 010°12'0 0.0
2018-May-20 01:00N 42°49' E 010°12'0 0.0
2018-May-20 00:30N 42°49' E 010°12'0 0.0
2018-May-20 00:00N 42°49' E 010°12'0 0.0
2018-May-19 23:30N 42°49' E 010°12'0 0.0
2018-May-19 23:00N 42°49' E 010°12'0 0.0
2018-May-19 22:30N 42°49' E 010°12'0 0.0
2018-May-19 22:00N 42°49' E 010°12'0 0.0
2018-May-19 21:29N 42°49' E 010°12'0 0.0
2018-May-19 21:00N 42°49' E 010°12'0 0.0
2018-May-19 20:30N 42°49' E 010°12'0 0.0
2018-May-19 19:58N 42°49' E 010°12'0 0.0
2018-May-19 19:28N 42°49' E 010°12'0 0.0
2018-May-19 19:00N 42°49' E 010°12'0 0.0
2018-May-19 18:30N 42°49' E 010°12'0 0.0
2018-May-19 18:00N 42°49' E 010°12'0 0.0
2018-May-19 17:30N 42°49' E 010°12'0 0.0
2018-May-19 17:00N 42°49' E 010°12'0 0.0
2018-May-19 16:30N 42°49' E 010°12'0 0.3
2018-May-19 15:58N 42°48' E 010°12'3 6.1
2018-May-19 15:29N 42°49' E 010°08'3 3.0
2018-May-19 14:31N 42°46' E 010°06'0 3.4
2018-May-19 14:28N 42°46' E 010°06'3 6.0
2018-May-19 14:00N 42°49' E 010°08'3 5.5
2018-May-19 13:29N 42°48' E 010°12'0 0.0
2018-May-19 12:54N 42°48' E 010°12'0 0.0
2018-May-19 12:27N 42°48' E 010°12'0 0.4
2018-May-19 12:00N 42°49' E 010°12'0 0.0
2018-May-19 11:30N 42°49' E 010°12'0 0.0
2018-May-19 11:00N 42°49' E 010°12'0 0.0
2018-May-19 10:30N 42°49' E 010°12'0 0.0
2018-May-19 10:00N 42°49' E 010°12'0 0.0
2018-May-19 09:30N 42°49' E 010°12'0 0.0
2018-May-19 09:00N 42°49' E 010°12'0 0.0
2018-May-19 08:30N 42°49' E 010°12'0 0.0
2018-May-19 08:00N 42°49' E 010°12'0 0.0
2018-May-19 07:30N 42°49' E 010°12'0 0.0
2018-May-19 07:00N 42°49' E 010°12'0 0.0
2018-May-19 06:29N 42°49' E 010°12'0 0.0
2018-May-19 06:00N 42°49' E 010°12'0 0.0
2018-May-19 05:30N 42°49' E 010°12'0 0.0
2018-May-19 05:00N 42°49' E 010°12'0 0.0
2018-May-19 04:30N 42°49' E 010°12'0 0.0
2018-May-19 04:00N 42°49' E 010°12'0 0.0
2018-May-19 03:30N 42°49' E 010°12'0 0.0
2018-May-19 03:00N 42°49' E 010°12'0 0.0
2018-May-19 02:29N 42°49' E 010°12'0 0.0
2018-May-19 02:00N 42°49' E 010°12'0 0.0
2018-May-19 01:30N 42°49' E 010°12'0 0.0
2018-May-19 01:00N 42°49' E 010°12'0 0.0
2018-May-19 00:30N 42°49' E 010°12'0 0.0
2018-May-18 23:54N 42°49' E 010°12'0 0.0
2018-May-18 23:30N 42°49' E 010°12'0 0.0
2018-May-18 23:00N 42°49' E 010°12'0 0.0
2018-May-18 22:30N 42°49' E 010°12'0 0.0
2018-May-18 22:00N 42°49' E 010°12'0 0.0
2018-May-18 21:30N 42°49' E 010°12'0 0.0
2018-May-18 21:00N 42°49' E 010°12'0 0.0
2018-May-18 20:30N 42°49' E 010°12'0 0.0
2018-May-18 20:00N 42°49' E 010°12'0 0.0
2018-May-18 19:30N 42°49' E 010°12'0 0.0
2018-May-18 18:59N 42°49' E 010°12'0 0.0
2018-May-18 18:30N 42°49' E 010°12'0 0.0
2018-May-18 17:59N 42°49' E 010°12'0 0.0
2018-May-18 17:30N 42°49' E 010°12'0 0.0
2018-May-18 17:00N 42°49' E 010°12'0 0.0
2018-May-18 16:30N 42°49' E 010°12'0 0.3
2018-May-18 15:57N 42°48' E 010°12'3 6.9
2018-May-18 15:28N 42°48' E 010°07'3 7.1
2018-May-18 15:00N 42°45' E 010°06'1 1.8
2018-May-18 14:29N 42°46' E 010°06'3 6.1
2018-May-18 13:59N 42°49' E 010°08'3 4.2
2018-May-18 13:22N 42°48' E 010°12'0 0.0
2018-May-18 12:58N 42°48' E 010°12'0 0.0
2018-May-18 12:30N 42°48' E 010°12'0 0.0
2018-May-18 11:59N 42°48' E 010°12'1 2.0
2018-May-18 11:22N 42°49' E 010°13'3 2.0
2018-May-18 09:40N 42°50' E 010°18'1 8.3
2018-May-18 09:29N 42°50' E 010°16'1 2.7
2018-May-18 08:59N 42°49' E 010°18'1 3.0
2018-May-18 08:30N 42°49' E 010°19'0 0.3
2018-May-18 07:55N 42°49' E 010°20'3 5.8
2018-May-18 07:27N 42°50' E 010°16'3 7.4
2018-May-18 07:00N 42°48' E 010°12'0 0.3
2018-May-18 06:30N 42°49' E 010°12'0 0.0
2018-May-18 06:00N 42°49' E 010°12'0 0.0
2018-May-18 05:30N 42°49' E 010°12'0 0.0
2018-May-18 05:00N 42°49' E 010°12'0 0.0
2018-May-18 04:30N 42°49' E 010°12'0 0.0
2018-May-18 04:00N 42°49' E 010°12'0 0.0
2018-May-18 03:30N 42°49' E 010°12'0 0.0
2018-May-18 02:58N 42°49' E 010°12'0 0.0
2018-May-18 02:30N 42°49' E 010°12'0 0.0
2018-May-18 02:00N 42°49' E 010°12'0 0.0
2018-May-18 01:30N 42°49' E 010°12'0 0.0
2018-May-18 00:58N 42°49' E 010°12'0 0.0
2018-May-18 00:30N 42°49' E 010°12'0 0.0
2018-May-18 00:00N 42°49' E 010°12'0 0.0
2018-May-17 23:30N 42°49' E 010°12'0 0.0
2018-May-17 23:00N 42°49' E 010°12'0 0.0
2018-May-17 22:30N 42°49' E 010°12'0 0.0
2018-May-17 21:58N 42°49' E 010°12'0 0.0
2018-May-17 21:29N 42°49' E 010°12'0 0.0
2018-May-17 21:00N 42°49' E 010°12'0 0.0
2018-May-17 20:30N 42°49' E 010°12'0 0.0
2018-May-17 20:00N 42°49' E 010°12'0 0.0
2018-May-17 19:30N 42°49' E 010°12'0 0.0
2018-May-17 18:59N 42°49' E 010°12'0 0.0
2018-May-17 18:29N 42°49' E 010°12'0 0.0
2018-May-17 17:59N 42°49' E 010°12'0 0.0
2018-May-17 17:30N 42°49' E 010°12'0 0.0
2018-May-17 17:00N 42°49' E 010°12'0 0.0
2018-May-17 16:30N 42°49' E 010°12'0 0.3
2018-May-17 16:00N 42°48' E 010°12'  
Track history (hours):
 
Tides and Currents Weather Stations Pressure Air Temp Water Temp Dewpoint Dewpoint Depression Visibility Wind Speed Wind Dir Waves Ship Positions

Nautilus

Last reported at 2018-May-27 14:26 UTC. Time now 2018-May-27 15:53 UTC.
Position N 42°46' E 010°06'.

Length 25 m.

Type: Ship. MMSI: 247205700.

Date/timePositionNaut miles runAvg speedWind from/ knotsBaromVisibWave heightAir tempDewpointWater temp
2018-May-27 14:26N 42°46' E 010°06'3 6.3
2018-May-27 13:58N 42°49' E 010°09'3 5.4
2018-May-27 13:30N 42°48' E 010°12'0 0.0
2018-May-27 12:57N 42°48' E 010°12'0 0.0
2018-May-27 12:30N 42°48' E 010°12'0 0.3
2018-May-27 12:00N 42°49' E 010°12'0 0.0
2018-May-27 11:30N 42°49' E 010°12'0 0.0
2018-May-27 11:00N 42°49' E 010°12'0 0.0
2018-May-27 10:30N 42°49' E 010°12'0 0.0
2018-May-27 10:00N 42°49' E 010°12'0 0.0
2018-May-27 09:30N 42°49' E 010°12'0 0.0
2018-May-27 09:00N 42°49' E 010°12'0 0.0
2018-May-27 08:30N 42°49' E 010°12'0 0.0
2018-May-27 07:59N 42°49' E 010°12'0 0.0
2018-May-27 07:30N 42°49' E 010°12'0 0.0
2018-May-27 07:00N 42°49' E 010°12'0 0.0
2018-May-27 06:30N 42°49' E 010°12'0 0.0
2018-May-27 06:00N 42°49' E 010°12'0 0.0
2018-May-27 05:30N 42°49' E 010°12'0 0.0
2018-May-27 05:00N 42°49' E 010°12'0 0.0
2018-May-27 04:30N 42°49' E 010°12'0 0.0
2018-May-27 04:00N 42°49' E 010°12'0 0.0
2018-May-27 03:30N 42°49' E 010°12'0 0.0
2018-May-27 02:30N 42°49' E 010°12'0 0.0
2018-May-27 02:00N 42°49' E 010°12'0 0.0
2018-May-27 01:30N 42°49' E 010°12'0 0.0
2018-May-27 00:58N 42°49' E 010°12'0 0.0
2018-May-27 00:18N 42°49' E 010°12'0 0.0
2018-May-26 23:57N 42°49' E 010°12'0 0.0
2018-May-26 23:29N 42°49' E 010°12'0 0.0
2018-May-26 23:00N 42°49' E 010°12'0 0.0
2018-May-26 22:29N 42°49' E 010°12'0 0.0
2018-May-26 21:59N 42°49' E 010°12'0 0.0
2018-May-26 21:30N 42°49' E 010°12'0 0.0
2018-May-26 21:00N 42°49' E 010°12'0 0.0
2018-May-26 20:30N 42°49' E 010°12'0 0.0
2018-May-26 19:56N 42°49' E 010°12'0 0.0
2018-May-26 19:27N 42°49' E 010°12'0 0.0
2018-May-26 19:00N 42°49' E 010°12'0 0.0
2018-May-26 18:30N 42°49' E 010°12'0 0.0
2018-May-26 18:00N 42°49' E 010°12'0 0.0
2018-May-26 17:30N 42°49' E 010°12'0 0.0
2018-May-26 17:00N 42°49' E 010°12'0 0.0
2018-May-26 16:29N 42°49' E 010°12'0 0.3
2018-May-26 16:00N 42°48' E 010°12'3 6.4
2018-May-26 15:30N 42°49' E 010°08'4 7.1
2018-May-26 15:00N 42°45' E 010°06'1 2.0
2018-May-26 14:30N 42°46' E 010°06'3 5.7
2018-May-26 14:00N 42°49' E 010°08'3 5.8
2018-May-26 13:30N 42°48' E 010°12'0 0.0
2018-May-26 13:00N 42°48' E 010°12'0 0.0
2018-May-26 12:30N 42°48' E 010°12'0 0.0
2018-May-26 12:00N 42°48' E 010°12'0 0.3
2018-May-26 11:30N 42°49' E 010°12'0 0.0
2018-May-26 11:00N 42°49' E 010°12'0 0.0
2018-May-26 10:30N 42°49' E 010°12'0 0.0
2018-May-26 10:00N 42°49' E 010°12'0 0.0
2018-May-26 09:30N 42°49' E 010°12'0 0.0
2018-May-26 08:57N 42°49' E 010°12'0 0.0
2018-May-26 08:30N 42°49' E 010°12'0 0.0
2018-May-26 07:58N 42°49' E 010°12'0 0.0
2018-May-26 07:11N 42°49' E 010°12'0 0.0
2018-May-26 07:00N 42°49' E 010°12'0 0.0
2018-May-26 06:30N 42°49' E 010°12'0 0.0
2018-May-26 05:30N 42°49' E 010°12'0 0.0
2018-May-26 04:59N 42°49' E 010°12'0 0.0
2018-May-26 04:30N 42°49' E 010°12'0 0.0
2018-May-26 04:00N 42°49' E 010°12'0 0.0
2018-May-26 03:30N 42°49' E 010°12'0 0.0
2018-May-26 03:00N 42°49' E 010°12'0 0.0
2018-May-26 02:30N 42°49' E 010°12'0 0.0
2018-May-26 01:43N 42°49' E 010°12'0 0.0
2018-May-26 01:25N 42°49' E 010°12'0 0.0
2018-May-26 00:59N 42°49' E 010°12'0 0.0
2018-May-26 00:20N 42°49' E 010°12'0 0.0
2018-May-26 00:00N 42°49' E 010°12'0 0.0
2018-May-25 23:30N 42°49' E 010°12'0 0.0
2018-May-25 22:59N 42°49' E 010°12'0 0.0
2018-May-25 22:30N 42°49' E 010°12'0 0.0
2018-May-25 22:00N 42°49' E 010°12'0 0.0
2018-May-25 21:30N 42°49' E 010°12'0 0.0
2018-May-25 20:53N 42°49' E 010°12'0 0.0
2018-May-25 20:24N 42°49' E 010°12'0 0.0
2018-May-25 20:00N 42°49' E 010°12'0 0.0
2018-May-25 19:30N 42°49' E 010°12'0 0.0
2018-May-25 18:57N 42°49' E 010°12'0 0.0
2018-May-25 18:28N 42°49' E 010°12'0 0.0
2018-May-25 18:00N 42°49' E 010°12'0 0.0
2018-May-25 17:28N 42°49' E 010°12'0 0.0
2018-May-25 17:00N 42°49' E 010°12'0 0.0
2018-May-25 16:30N 42°49' E 010°12'0 0.3
2018-May-25 16:00N 42°48' E 010°12'4 7.1
2018-May-25 15:30N 42°48' E 010°07'2 2.2
2018-May-25 14:29N 42°46' E 010°06'3 6.2
2018-May-25 13:59N 42°49' E 010°09'2 4.5
2018-May-25 13:28N 42°48' E 010°12'0 0.0
2018-May-25 13:00N 42°48' E 010°12'0 0.0
2018-May-25 12:28N 42°48' E 010°12'0 0.0
2018-May-25 11:52N 42°48' E 010°12'0 0.0
2018-May-25 11:28N 42°48' E 010°12'0 0.0
2018-May-25 10:58N 42°48' E 010°12'0 0.0
2018-May-25 10:28N 42°48' E 010°12'0 0.0
2018-May-25 09:59N 42°48' E 010°12'0 0.0
2018-May-25 09:30N 42°48' E 010°12'0 0.4
2018-May-25 09:00N 42°49' E 010°12'0 0.0
2018-May-25 08:30N 42°49' E 010°12'0 0.0
2018-May-25 08:00N 42°49' E 010°12'0 0.0
2018-May-25 07:23N 42°49' E 010°12'0 0.0
2018-May-25 07:00N 42°49' E 010°12'0 0.0
2018-May-25 06:30N 42°49' E 010°12'0 0.0
2018-May-25 06:00N 42°49' E 010°12'0 0.0
2018-May-25 05:30N 42°49' E 010°12'0 0.0
2018-May-25 05:00N 42°49' E 010°12'0 0.0
2018-May-25 04:30N 42°49' E 010°12'0 0.0
2018-May-25 04:00N 42°49' E 010°12'0 0.0
2018-May-25 03:30N 42°49' E 010°12'0 0.0
2018-May-25 02:59N 42°49' E 010°12'0 0.0
2018-May-25 02:28N 42°49' E 010°12'0 0.0
2018-May-25 02:00N 42°49' E 010°12'0 0.0
2018-May-25 01:30N 42°49' E 010°12'0 0.0
2018-May-25 00:59N 42°49' E 010°12'0 0.0
2018-May-25 00:30N 42°49' E 010°12'0 0.0
2018-May-25 00:00N 42°49' E 010°12'0 0.0
2018-May-24 23:30N 42°49' E 010°12'0 0.0
2018-May-24 23:00N 42°49' E 010°12'0 0.0
2018-May-24 22:30N 42°49' E 010°12'0 0.0
2018-May-24 22:00N 42°49' E 010°12'0 0.0
2018-May-24 21:30N 42°49' E 010°12'0 0.0
2018-May-24 20:59N 42°49' E 010°12'0 0.0
2018-May-24 20:30N 42°49' E 010°12'0 0.0
2018-May-24 20:00N 42°49' E 010°12'0 0.0
2018-May-24 19:28N 42°49' E 010°12'0 0.0
2018-May-24 18:59N 42°49' E 010°12'0 0.0
2018-May-24 17:59N 42°49' E 010°12'0 0.0
2018-May-24 17:30N 42°49' E 010°12'0 0.0
2018-May-24 17:00N 42°49' E 010°12'0 0.0
2018-May-24 16:29N 42°49' E 010°12'0 0.4
2018-May-24 16:00N 42°48' E 010°12'3 6.6
2018-May-24 15:30N 42°49' E 010°07'0 0.2
2018-May-24 14:01N 42°49' E 010°08'0 8.7
2018-May-24 13:58N 42°49' E 010°08'3 5.7
2018-May-24 13:30N 42°48' E 010°12'1 0.2
2018-May-24 07:44N 42°49' E 010°13'1 4.3
2018-May-24 07:30N 42°49' E 010°12'0 0.0
2018-May-24 06:58N 42°49' E 010°12'0 0.0
2018-May-24 06:30N 42°49' E 010°12'0 0.0
2018-May-24 06:00N 42°49' E 010°12'0 0.0
2018-May-24 05:29N 42°49' E 010°12'0 0.0
2018-May-24 05:00N 42°49' E 010°12'0 0.0
2018-May-24 04:16N 42°49' E 010°12'0 0.0
2018-May-24 04:00N 42°49' E 010°12'0 0.0
2018-May-24 03:30N 42°49' E 010°12'0 0.0
2018-May-24 03:00N 42°49' E 010°12'0 0.0
2018-May-24 02:30N 42°49' E 010°12'0 0.0
2018-May-24 02:00N 42°49' E 010°12'0 0.0
2018-May-24 01:30N 42°49' E 010°12'0 0.0
2018-May-24 01:00N 42°49' E 010°12'0 0.0
2018-May-24 00:30N 42°49' E 010°12'0 0.0
2018-May-24 00:00N 42°49' E 010°12'0 0.0
2018-May-23 23:30N 42°49' E 010°12'0 0.0
2018-May-23 23:00N 42°49' E 010°12'0 0.0
2018-May-23 22:30N 42°49' E 010°12'0 0.0
2018-May-23 22:00N 42°49' E 010°12'0 0.0
2018-May-23 21:30N 42°49' E 010°12'0 0.0
2018-May-23 21:00N 42°49' E 010°12'0 0.0
2018-May-23 20:30N 42°49' E 010°12'0 0.0
2018-May-23 19:58N 42°49' E 010°12'0 0.0
2018-May-23 19:30N 42°49' E 010°12'0 0.0
2018-May-23 19:00N 42°49' E 010°12'0 0.0
2018-May-23 18:30N 42°49' E 010°12'0 0.0
2018-May-23 18:00N 42°49' E 010°12'0 0.0
2018-May-23 17:29N 42°49' E 010°12'0 0.0
2018-May-23 17:00N 42°49' E 010°12'0 0.0
2018-May-23 16:30N 42°49' E 010°12'0 0.0
2018-May-23 16:00N 42°49' E 010°12'0 0.0
2018-May-23 15:30N 42°49' E 010°12'0 0.0
2018-May-23 15:00N 42°49' E 010°12'0 0.0
2018-May-23 14:30N 42°49' E 010°12'0 0.0
2018-May-23 14:00N 42°49' E 010°12'0 0.0
2018-May-23 13:30N 42°49' E 010°12'0 0.0
2018-May-23 13:00N 42°49' E 010°12'0 0.0
2018-May-23 12:22N 42°49' E 010°12'0 0.0
2018-May-23 12:00N 42°49' E 010°12'0 0.0
2018-May-23 11:30N 42°49' E 010°12'0 0.0
2018-May-23 11:00N 42°49' E 010°12'0 0.0
2018-May-23 10:30N 42°49' E 010°12'0 0.0
2018-May-23 09:59N 42°49' E 010°12'0 0.0
2018-May-23 09:30N 42°49' E 010°12'0 0.0
2018-May-23 08:59N 42°49' E 010°12'0 0.0
2018-May-23 08:30N 42°49' E 010°12'0 0.0
2018-May-23 08:00N 42°49' E 010°12'0 0.0
2018-May-23 07:30N 42°49' E 010°12'0 0.0
2018-May-23 06:59N 42°49' E 010°12'0 0.0
2018-May-23 06:30N 42°49' E 010°12'0 0.0
2018-May-23 06:00N 42°49' E 010°12'0 0.0
2018-May-23 05:30N 42°49' E 010°12'0 0.0
2018-May-23 05:00N 42°49' E 010°12'0 0.0
2018-May-23 04:30N 42°49' E 010°12'0 0.0
2018-May-23 04:00N 42°49' E 010°12'0 0.0
2018-May-23 03:30N 42°49' E 010°12'0 0.0
2018-May-23 03:00N 42°49' E 010°12'0 0.0
2018-May-23 02:30N 42°49' E 010°12'0 0.0
2018-May-23 02:00N 42°49' E 010°12'0 0.0
2018-May-23 01:30N 42°49' E 010°12'0 0.0
2018-May-23 01:00N 42°49' E 010°12'0 0.0
2018-May-23 00:30N 42°49' E 010°12'0 0.0
2018-May-23 00:00N 42°49' E 010°12'0 0.0
2018-May-22 23:30N 42°49' E 010°12'0 0.0
2018-May-22 23:00N 42°49' E 010°12'0 0.0
2018-May-22 22:30N 42°49' E 010°12'0 0.0
2018-May-22 21:59N 42°49' E 010°12'0 0.0
2018-May-22 21:30N 42°49' E 010°12'0 0.0
2018-May-22 21:00N 42°49' E 010°12'0 0.0
2018-May-22 20:30N 42°49' E 010°12'0 0.0
2018-May-22 20:00N 42°49' E 010°12'0 0.0
2018-May-22 19:30N 42°49' E 010°12'0 0.0
2018-May-22 19:00N 42°49' E 010°12'0 0.0
2018-May-22 18:30N 42°49' E 010°12'0 0.0
2018-May-22 18:00N 42°49' E 010°12'0 0.0
2018-May-22 17:29N 42°49' E 010°12'0 0.0
2018-May-22 17:00N 42°49' E 010°12'0 0.0
2018-May-22 16:30N 42°49' E 010°12'0 0.3
2018-May-22 16:00N 42°48' E 010°12'3 1.4
2018-May-22 14:01N 42°49' E 010°08'2 8.1
2018-May-22 13:42N 42°49' E 010°11'1 2.2
2018-May-22 13:28N 42°48' E 010°12'0 0.0
2018-May-22 12:56N 42°48' E 010°12'0 0.0
2018-May-22 12:30N 42°48' E 010°12'0 0.0
2018-May-22 12:00N 42°48' E 010°12'0 0.0
2018-May-22 11:30N 42°48' E 010°12'0 0.0
2018-May-22 11:00N 42°48' E 010°12'0 0.3
2018-May-22 10:30N 42°49' E 010°12'0 0.0
2018-May-22 09:59N 42°49' E 010°12'0 0.0
2018-May-22 09:30N 42°49' E 010°12'0 0.0
2018-May-22 09:00N 42°49' E 010°12'0 0.0
2018-May-22 08:30N 42°49' E 010°12'0 0.0
2018-May-22 08:00N 42°49' E 010°12'0 0.0
2018-May-22 07:30N 42°49' E 010°12'0 0.0
2018-May-22 06:57N 42°49' E 010°12'0 0.0
2018-May-22 06:30N 42°49' E 010°12'0 0.0
2018-May-22 06:00N 42°49' E 010°12'0 0.0
2018-May-22 05:30N 42°49' E 010°12'0 0.0
2018-May-22 05:00N 42°49' E 010°12'0 0.0
2018-May-22 04:30N 42°49' E 010°12'0 0.0
2018-May-22 04:00N 42°49' E 010°12'0 0.0
2018-May-22 03:30N 42°49' E 010°12'0 0.0
2018-May-22 03:00N 42°49' E 010°12'0 0.0
2018-May-22 02:30N 42°49' E 010°12'0 0.0
2018-May-22 02:00N 42°49' E 010°12'0 0.0
2018-May-22 01:29N 42°49' E 010°12'0 0.0
2018-May-22 01:00N 42°49' E 010°12'0 0.0
2018-May-22 00:30N 42°49' E 010°12'0 0.0
2018-May-22 00:00N 42°49' E 010°12'0 0.0
2018-May-21 23:30N 42°49' E 010°12'0 0.0
2018-May-21 23:00N 42°49' E 010°12'0 0.0
2018-May-21 22:30N 42°49' E 010°12'0 0.0
2018-May-21 22:00N 42°49' E 010°12'0 0.0
2018-May-21 21:30N 42°49' E 010°12'0 0.0
2018-May-21 21:00N 42°49' E 010°12'0 0.0
2018-May-21 20:30N 42°49' E 010°12'0 0.0
2018-May-21 20:00N 42°49' E 010°12'0 0.0
2018-May-21 19:30N 42°49' E 010°12'0 0.0
2018-May-21 19:00N 42°49' E 010°12'0 0.0
2018-May-21 18:30N 42°49' E 010°12'0 0.0
2018-May-21 18:00N 42°49' E 010°12'0 0.0
2018-May-21 17:30N 42°49' E 010°12'0 0.0
2018-May-21 17:00N 42°49' E 010°12'0 0.0
2018-May-21 16:30N 42°49' E 010°12'0 0.3
2018-May-21 16:00N 42°48' E 010°12'5 3.1
2018-May-21 14:27N 42°46' E 010°06'3 6.0
2018-May-21 13:59N 42°49' E 010°08'3 5.7
2018-May-21 13:30N 42°48' E 010°12'0 0.0
2018-May-21 13:00N 42°48' E 010°12'0 0.0
2018-May-21 12:30N 42°48' E 010°12'0 0.4
2018-May-21 12:00N 42°49' E 010°12'0 0.0
2018-May-21 11:30N 42°49' E 010°12'0 0.0
2018-May-21 11:00N 42°49' E 010°12'0 0.0
2018-May-21 10:30N 42°49' E 010°12'0 0.0
2018-May-21 09:59N 42°49' E 010°12'0 0.0
2018-May-21 09:30N 42°49' E 010°12'0 0.0
2018-May-21 08:59N 42°49' E 010°12'0 0.0
2018-May-21 08:30N 42°49' E 010°12'0 0.0
2018-May-21 08:00N 42°49' E 010°12'0 0.0
2018-May-21 07:30N 42°49' E 010°12'0 0.0
2018-May-21 07:00N 42°49' E 010°12'0 0.0
2018-May-21 06:30N 42°49' E 010°12'0 0.0
2018-May-21 05:59N 42°49' E 010°12'0 0.0
2018-May-21 05:30N 42°49' E 010°12'0 0.0
2018-May-21 05:00N 42°49' E 010°12'0 0.0
2018-May-21 04:30N 42°49' E 010°12'0 0.0
2018-May-21 04:00N 42°49' E 010°12'0 0.0
2018-May-21 03:30N 42°49' E 010°12'0 0.0
2018-May-21 03:00N 42°49' E 010°12'0 0.0
2018-May-21 02:30N 42°49' E 010°12'0 0.0
2018-May-21 02:00N 42°49' E 010°12'0 0.0
2018-May-21 01:30N 42°49' E 010°12'0 0.0
2018-May-21 01:00N 42°49' E 010°12'0 0.0
2018-May-21 00:30N 42°49' E 010°12'0 0.0
2018-May-21 00:00N 42°49' E 010°12'0 0.0
2018-May-20 23:30N 42°49' E 010°12'0 0.0
2018-May-20 23:00N 42°49' E 010°12'0 0.0
2018-May-20 22:30N 42°49' E 010°12'0 0.0
2018-May-20 22:00N 42°49' E 010°12'0 0.0
2018-May-20 21:30N 42°49' E 010°12'0 0.0
2018-May-20 21:00N 42°49' E 010°12'0 0.0
2018-May-20 20:30N 42°49' E 010°12'0 0.0
2018-May-20 20:00N 42°49' E 010°12'0 0.0
2018-May-20 19:30N 42°49' E 010°12'0 0.0
2018-May-20 19:00N 42°49' E 010°12'0 0.0
2018-May-20 18:30N 42°49' E 010°12'0 0.0
2018-May-20 18:00N 42°49' E 010°12'0 0.0
2018-May-20 17:30N 42°49' E 010°12'0 0.0
2018-May-20 17:00N 42°49' E 010°12'0 0.0
2018-May-20 16:30N 42°49' E 010°12'0 0.4
2018-May-20 16:00N 42°48' E 010°12'3 6.9
2018-May-20 15:30N 42°48' E 010°07'2 2.0
2018-May-20 14:25N 42°46' E 010°06'3 6.5
2018-May-20 14:00N 42°49' E 010°08'3 5.1
2018-May-20 13:28N 42°48' E 010°12'0 0.0
2018-May-20 13:00N 42°48' E 010°12'0 0.0
2018-May-20 12:30N 42°48' E 010°12'0 0.3
2018-May-20 11:59N 42°49' E 010°12'0 0.0
2018-May-20 11:30N 42°49' E 010°12'0 0.0
2018-May-20 11:00N 42°49' E 010°12'0 0.0
2018-May-20 10:30N 42°49' E 010°12'0 0.0
2018-May-20 09:59N 42°49' E 010°12'0 0.0
2018-May-20 09:30N 42°49' E 010°12'0 0.0
2018-May-20 09:00N 42°49' E 010°12'0 0.0
2018-May-20 08:30N 42°49' E 010°12'0 0.0
2018-May-20 08:00N 42°49' E 010°12'0 0.0
2018-May-20 07:30N 42°49' E 010°12'0 0.0
2018-May-20 07:00N 42°49' E 010°12'0 0.0
2018-May-20 06:30N 42°49' E 010°12'0 0.0
2018-May-20 06:00N 42°49' E 010°12'0 0.0
2018-May-20 05:30N 42°49' E 010°12'0 0.0
2018-May-20 04:59N 42°49' E 010°12'0 0.0
2018-May-20 04:30N 42°49' E 010°12'0 0.0
2018-May-20 04:00N 42°49' E 010°12'0 0.0
2018-May-20 03:30N 42°49' E 010°12'0 0.0
2018-May-20 03:00N 42°49' E 010°12'0 0.0
2018-May-20 02:30N 42°49' E 010°12'0 0.0
2018-May-20 02:00N 42°49' E 010°12'0 0.0
2018-May-20 01:30N 42°49' E 010°12'0 0.0
2018-May-20 01:00N 42°49' E 010°12'0 0.0
2018-May-20 00:30N 42°49' E 010°12'0 0.0
2018-May-20 00:00N 42°49' E 010°12'0 0.0
2018-May-19 23:30N 42°49' E 010°12'0 0.0
2018-May-19 23:00N 42°49' E 010°12'0 0.0
2018-May-19 22:30N 42°49' E 010°12'0 0.0
2018-May-19 22:00N 42°49' E 010°12'0 0.0
2018-May-19 21:29N 42°49' E 010°12'0 0.0
2018-May-19 21:00N 42°49' E 010°12'0 0.0
2018-May-19 20:30N 42°49' E 010°12'0 0.0
2018-May-19 19:58N 42°49' E 010°12'0 0.0
2018-May-19 19:28N 42°49' E 010°12'0 0.0
2018-May-19 19:00N 42°49' E 010°12'0 0.0
2018-May-19 18:30N 42°49' E 010°12'0 0.0
2018-May-19 18:00N 42°49' E 010°12'0 0.0
2018-May-19 17:30N 42°49' E 010°12'0 0.0
2018-May-19 17:00N 42°49' E 010°12'0 0.0
2018-May-19 16:30N 42°49' E 010°12'0 0.3
2018-May-19 15:58N 42°48' E 010°12'3 6.1
2018-May-19 15:29N 42°49' E 010°08'3 3.0
2018-May-19 14:31N 42°46' E 010°06'0 3.4
2018-May-19 14:28N 42°46' E 010°06'3 6.0
2018-May-19 14:00N 42°49' E 010°08'3 5.5
2018-May-19 13:29N 42°48' E 010°12'0 0.0
2018-May-19 12:54N 42°48' E 010°12'0 0.0
2018-May-19 12:27N 42°48' E 010°12'0 0.4
2018-May-19 12:00N 42°49' E 010°12'0 0.0
2018-May-19 11:30N 42°49' E 010°12'0 0.0
2018-May-19 11:00N 42°49' E 010°12'0 0.0
2018-May-19 10:30N 42°49' E 010°12'0 0.0
2018-May-19 10:00N 42°49' E 010°12'0 0.0
2018-May-19 09:30N 42°49' E 010°12'0 0.0
2018-May-19 09:00N 42°49' E 010°12'0 0.0
2018-May-19 08:30N 42°49' E 010°12'0 0.0
2018-May-19 08:00N 42°49' E 010°12'0 0.0
2018-May-19 07:30N 42°49' E 010°12'0 0.0
2018-May-19 07:00N 42°49' E 010°12'0 0.0
2018-May-19 06:29N 42°49' E 010°12'0 0.0
2018-May-19 06:00N 42°49' E 010°12'0 0.0
2018-May-19 05:30N 42°49' E 010°12'0 0.0
2018-May-19 05:00N 42°49' E 010°12'0 0.0
2018-May-19 04:30N 42°49' E 010°12'0 0.0
2018-May-19 04:00N 42°49' E 010°12'0 0.0
2018-May-19 03:30N 42°49' E 010°12'0 0.0
2018-May-19 03:00N 42°49' E 010°12'0 0.0
2018-May-19 02:29N 42°49' E 010°12'0 0.0
2018-May-19 02:00N 42°49' E 010°12'0 0.0
2018-May-19 01:30N 42°49' E 010°12'0 0.0
2018-May-19 01:00N 42°49' E 010°12'0 0.0
2018-May-19 00:30N 42°49' E 010°12'0 0.0
2018-May-18 23:54N 42°49' E 010°12'0 0.0
2018-May-18 23:30N 42°49' E 010°12'0 0.0
2018-May-18 23:00N 42°49' E 010°12'0 0.0
2018-May-18 22:30N 42°49' E 010°12'0 0.0
2018-May-18 22:00N 42°49' E 010°12'0 0.0
2018-May-18 21:30N 42°49' E 010°12'0 0.0
2018-May-18 21:00N 42°49' E 010°12'0 0.0
2018-May-18 20:30N 42°49' E 010°12'0 0.0
2018-May-18 20:00N 42°49' E 010°12'0 0.0
2018-May-18 19:30N 42°49' E 010°12'0 0.0
2018-May-18 18:59N 42°49' E 010°12'0 0.0
2018-May-18 18:30N 42°49' E 010°12'0 0.0
2018-May-18 17:59N 42°49' E 010°12'0 0.0
2018-May-18 17:30N 42°49' E 010°12'0 0.0
2018-May-18 17:00N 42°49' E 010°12'0 0.0
2018-May-18 16:30N 42°49' E 010°12'0 0.3
2018-May-18 15:57N 42°48' E 010°12'3 6.9
2018-May-18 15:28N 42°48' E 010°07'3 7.1
2018-May-18 15:00N 42°45' E 010°06'1 1.8
2018-May-18 14:29N 42°46' E 010°06'3 6.1
2018-May-18 13:59N 42°49' E 010°08'3 4.2
2018-May-18 13:22N 42°48' E 010°12'0 0.0
2018-May-18 12:58N 42°48' E 010°12'0 0.0
2018-May-18 12:30N 42°48' E 010°12'0 0.0
2018-May-18 11:59N 42°48' E 010°12'1 2.0
2018-May-18 11:22N 42°49' E 010°13'3 2.0
2018-May-18 09:40N 42°50' E 010°18'1 8.3
2018-May-18 09:29N 42°50' E 010°16'1 2.7
2018-May-18 08:59N 42°49' E 010°18'1 3.0
2018-May-18 08:30N 42°49' E 010°19'0 0.3
2018-May-18 07:55N 42°49' E 010°20'3 5.8
2018-May-18 07:27N 42°50' E 010°16'3 7.4
2018-May-18 07:00N 42°48' E 010°12'0 0.3
2018-May-18 06:30N 42°49' E 010°12'0 0.0
2018-May-18 06:00N 42°49' E 010°12'0 0.0
2018-May-18 05:30N 42°49' E 010°12'0 0.0
2018-May-18 05:00N 42°49' E 010°12'0 0.0
2018-May-18 04:30N 42°49' E 010°12'0 0.0
2018-May-18 04:00N 42°49' E 010°12'0 0.0
2018-May-18 03:30N 42°49' E 010°12'0 0.0
2018-May-18 02:58N 42°49' E 010°12'0 0.0
2018-May-18 02:30N 42°49' E 010°12'0 0.0
2018-May-18 02:00N 42°49' E 010°12'0 0.0
2018-May-18 01:30N 42°49' E 010°12'0 0.0
2018-May-18 00:58N 42°49' E 010°12'0 0.0
2018-May-18 00:30N 42°49' E 010°12'0 0.0
2018-May-18 00:00N 42°49' E 010°12'0 0.0
2018-May-17 23:30N 42°49' E 010°12'0 0.0
2018-May-17 23:00N 42°49' E 010°12'0 0.0
2018-May-17 22:30N 42°49' E 010°12'0 0.0
2018-May-17 21:58N 42°49' E 010°12'0 0.0
2018-May-17 21:29N 42°49' E 010°12'0 0.0
2018-May-17 21:00N 42°49' E 010°12'0 0.0
2018-May-17 20:30N 42°49' E 010°12'0 0.0
2018-May-17 20:00N 42°49' E 010°12'0 0.0
2018-May-17 19:30N 42°49' E 010°12'0 0.0
2018-May-17 18:59N 42°49' E 010°12'0 0.0
2018-May-17 18:29N 42°49' E 010°12'0 0.0
2018-May-17 17:59N 42°49' E 010°12'0 0.0
2018-May-17 17:30N 42°49' E 010°12'0 0.0
2018-May-17 17:00N 42°49' E 010°12'0 0.0
2018-May-17 16:30N 42°49' E 010°12'0 0.3
2018-May-17 16:00N 42°48' E 010°12'  

Dump ship's entire track history